Time;durP1;ratioP1;P1;durP2;ratioP2;P2;SDS_P1;SDS_P2;PMS_P1;PMS_P2;Temp;Humidity;BMP_temperature;BMP_pressure;BME280_temperature;BME280_humidity;BME280_pressure;Samples;Min_cycle;Max_cycle;Signal;HPM_P1;HPM_P2
2023/05/17 00:00:11;;;;;;;2.38;1.08;;;;;;;3.57;100.00;93265.25;2499171;23;20007;-81
2023/05/17 00:01:19;;;;;;;7.28;1.50;;;;;;;3.50;100.00;93261.41;2523328;23;20026;-81
2023/05/17 00:02:24;;;;;;;4.35;1.60;;;;;;;3.62;100.00;93257.72;2520731;23;20018;-82
2023/05/17 00:03:29;;;;;;;3.38;1.20;;;;;;;3.59;100.00;93260.34;2498520;23;20014;-82
2023/05/17 00:04:36;;;;;;;1.83;1.08;;;;;;;3.65;100.00;93258.88;2521463;23;20105;-81
2023/05/17 00:05:41;;;;;;;1.83;1.30;;;;;;;3.69;100.00;93257.03;2520503;23;20029;-80
2023/05/17 00:06:45;;;;;;;3.70;1.40;;;;;;;3.68;100.00;93260.78;2510443;23;20003;-81
2023/05/17 00:07:48;;;;;;;3.08;1.40;;;;;;;3.65;100.00;93259.63;2509176;23;20007;-81
2023/05/17 00:08:52;;;;;;;4.65;1.17;;;;;;;3.61;100.00;93261.50;2498087;23;20418;-80
2023/05/17 00:09:59;;;;;;;5.00;1.25;;;;;;;3.59;100.00;93260.34;2497877;23;20621;-81
2023/05/17 00:11:03;;;;;;;5.53;1.20;;;;;;;3.61;100.00;93268.66;2499048;23;20007;-80
2023/05/17 00:12:10;;;;;;;3.20;1.35;;;;;;;3.58;100.00;93274.69;2498442;23;20007;-80
2023/05/17 00:13:12;;;;;;;4.28;1.30;;;;;;;3.50;100.00;93269.34;2523678;23;20365;-80
2023/05/17 00:14:17;;;;;;;4.32;1.42;;;;;;;3.47;100.00;93269.34;2525864;23;20058;-78
2023/05/17 00:15:24;;;;;;;5.97;1.50;;;;;;;3.45;100.00;93268.94;2519384;23;20010;-79
2023/05/17 00:16:28;;;;;;;9.45;1.50;;;;;;;3.48;100.00;93271.59;2516834;23;20078;-79
2023/05/17 00:17:36;;;;;;;3.60;2.08;;;;;;;3.64;100.00;93270.56;2514951;23;20014;-81
2023/05/17 00:18:44;;;;;;;3.95;1.20;;;;;;;3.59;100.00;93271.66;2528157;23;20329;-80
2023/05/17 00:19:52;;;;;;;5.80;1.17;;;;;;;3.52;100.00;93275.03;2522179;23;20105;-79
2023/05/17 00:21:00;;;;;;;1.73;1.10;;;;;;;3.46;100.00;93271.19;2524009;23;20121;-80
2023/05/17 00:22:05;;;;;;;4.43;1.25;;;;;;;3.45;100.00;93280.25;2511343;23;20007;-81
2023/05/17 00:23:10;;;;;;;4.13;1.52;;;;;;;3.43;100.00;93273.81;2522725;23;20037;-81
2023/05/17 00:24:12;;;;;;;3.20;1.30;;;;;;;3.48;100.00;93271.59;2533481;23;20113;-82
2023/05/17 00:25:20;;;;;;;3.05;1.17;;;;;;;3.55;100.00;93270.88;2521358;23;20430;-80
2023/05/17 00:26:27;;;;;;;2.90;1.23;;;;;;;3.50;100.00;93277.25;2523249;23;20117;-82
2023/05/17 00:27:38;;;;;;;4.43;1.30;;;;;;;3.47;100.00;93275.38;2533979;23;20432;-79
2023/05/17 00:28:40;;;;;;;3.90;1.38;;;;;;;3.52;100.00;93276.91;2534936;23;20008;-80
2023/05/17 00:29:49;;;;;;;1.77;1.08;;;;;;;3.55;100.00;93278.81;2520857;23;20007;-79
2023/05/17 00:30:53;;;;;;;4.00;1.30;;;;;;;3.46;100.00;93276.47;2534091;23;20010;-81
2023/05/17 00:32:00;;;;;;;4.03;1.55;;;;;;;3.45;100.00;93274.22;2533358;23;20073;-82
2023/05/17 00:33:07;;;;;;;3.33;1.42;;;;;;;3.33;100.00;93267.31;2522925;23;20017;-80
2023/05/17 00:34:14;;;;;;;4.25;1.45;;;;;;;3.34;100.00;93274.13;2523161;23;20089;-80
2023/05/17 00:35:21;;;;;;;2.63;1.25;;;;;;;3.35;100.00;93283.56;2532686;23;20002;-80
2023/05/17 00:36:28;;;;;;;5.65;1.45;;;;;;;3.30;100.00;93283.91;2532465;23;20016;-80
2023/05/17 00:37:36;;;;;;;4.40;1.30;;;;;;;3.34;100.00;93276.03;2532235;23;20440;-79
2023/05/17 00:38:44;;;;;;;2.85;1.08;;;;;;;3.32;100.00;93275.63;2522433;23;20323;-80
2023/05/17 00:39:48;;;;;;;3.88;1.88;;;;;;;3.45;100.00;93282.13;2522012;23;20018;-80
2023/05/17 00:40:53;;;;;;;2.60;1.92;;;;;;;3.32;100.00;93284.28;2533163;23;20062;-80
2023/05/17 00:42:01;;;;;;;10.05;3.95;;;;;;;3.31;100.00;93277.50;2532199;23;20006;-80
2023/05/17 00:43:06;;;;;;;5.45;1.60;;;;;;;3.31;100.00;93280.16;2510330;23;20430;-80
2023/05/17 00:44:09;;;;;;;4.80;1.35;;;;;;;3.22;100.00;93283.09;2522862;23;20092;-80
2023/05/17 00:45:13;;;;;;;6.00;1.65;;;;;;;3.20;100.00;93279.28;2520982;23;20017;-80
2023/05/17 00:46:18;;;;;;;3.97;1.55;;;;;;;3.19;100.00;93278.53;2520823;23;20013;-81
2023/05/17 00:47:23;;;;;;;3.67;1.42;;;;;;;3.17;100.00;93278.16;2523218;23;20006;-79
2023/05/17 00:48:32;;;;;;;2.80;1.30;;;;;;;3.14;100.00;93283.38;2532462;23;20006;-80
2023/05/17 00:49:37;;;;;;;3.20;1.40;;;;;;;3.16;100.00;93284.56;2510948;23;20035;-80
2023/05/17 00:50:44;;;;;;;2.13;1.48;;;;;;;3.12;100.00;93283.00;2522334;23;20358;-82
2023/05/17 00:51:50;;;;;;;3.78;1.63;;;;;;;3.15;100.00;93285.66;2519989;23;20002;-80
2023/05/17 00:52:55;;;;;;;2.85;1.30;;;;;;;3.20;100.00;93289.84;2521286;23;20054;-80
2023/05/17 00:54:05;;;;;;;2.63;1.38;;;;;;;3.17;100.00;93286.06;2521377;23;20029;-80
2023/05/17 00:55:10;;;;;;;4.45;1.38;;;;;;;3.17;100.00;93287.94;2534328;23;20010;-79
2023/05/17 00:56:17;;;;;;;3.67;1.33;;;;;;;3.20;100.00;93289.84;2532885;23;20429;-82
2023/05/17 00:57:28;;;;;;;4.82;1.38;;;;;;;3.18;100.00;93292.09;2534047;23;20333;-81
2023/05/17 00:58:39;;;;;;;7.70;1.42;;;;;;;3.16;100.00;93291.69;2532934;23;20006;-80
2023/05/17 00:59:48;;;;;;;3.30;1.33;;;;;;;3.16;100.00;93291.69;2535005;23;20425;-80
2023/05/17 01:00:57;;;;;;;5.28;1.60;;;;;;;3.20;100.00;93287.19;2532243;23;20006;-81
2023/05/17 01:02:07;;;;;;;6.20;1.50;;;;;;;3.23;100.00;93289.13;2546748;23;20052;-81
2023/05/17 01:03:15;;;;;;;2.95;1.40;;;;;;;3.24;100.00;93290.63;2530995;23;20448;-83
2023/05/17 01:04:21;;;;;;;6.78;1.20;;;;;;;3.20;100.00;93292.50;2525766;23;20017;-80
2023/05/17 01:05:27;;;;;;;5.13;1.40;;;;;;;3.11;100.00;93297.31;2528969;23;20017;-80
2023/05/17 01:06:35;;;;;;;4.38;1.40;;;;;;;3.12;100.00;93298.84;2515113;23;20057;-79
2023/05/17 01:07:40;;;;;;;2.75;1.77;;;;;;;3.13;100.00;93301.13;2524297;23;20054;-81
2023/05/17 01:08:44;;;;;;;2.08;1.20;;;;;;;3.06;100.00;93300.28;2520273;23;20075;-80
2023/05/17 01:09:51;;;;;;;2.97;1.20;;;;;;;3.11;100.00;93303.34;2509491;23;20062;-80
2023/05/17 01:11:13;;;;;;;3.20;1.40;;;;;;;3.00;100.00;93299.88;2521170;23;20002;-80
2023/05/17 01:12:32;;;;;;;4.13;1.50;;;;;;;3.00;100.00;93303.25;2537269;23;20072;-80
2023/05/17 01:13:49;;;;;;;4.00;1.33;;;;;;;2.96;100.00;93304.34;2525885;23;20018;-79
2023/05/17 01:15:14;;;;;;;1.98;1.20;;;;;;;2.96;100.00;93307.00;2532419;23;20006;-80
2023/05/17 01:16:39;;;;;;;4.25;1.40;;;;;;;2.90;100.00;93305.81;2525130;23;20010;-81
2023/05/17 01:18:10;;;;;;;1.45;1.20;;;;;;;2.85;100.00;93308.75;2518021;23;20017;-81
2023/05/17 01:19:33;;;;;;;2.03;1.33;;;;;;;2.92;100.00;93306.19;2514186;23;20093;-80
2023/05/17 01:20:42;;;;;;;1.80;1.15;;;;;;;2.88;100.00;93300.88;2524967;23;20013;-82
2023/05/17 01:22:15;;;;;;;2.28;1.30;;;;;;;2.86;100.00;93305.75;2522955;23;20401;-80
2023/05/17 01:23:59;;;;;;;5.63;1.40;;;;;;;2.78;100.00;93309.44;2520268;23;20006;-80
2023/05/17 01:25:17;;;;;;;3.95;1.60;;;;;;;2.74;100.00;93306.75;2527873;23;20010;-80
2023/05/17 01:26:39;;;;;;;3.35;1.30;;;;;;;2.72;100.00;93301.09;2512691;23;20062;-80
2023/05/17 01:27:49;;;;;;;3.55;1.13;;;;;;;2.72;100.00;93309.03;2513348;23;20017;-80
2023/05/17 01:28:56;;;;;;;3.53;1.40;;;;;;;2.66;100.00;93305.16;2522436;23;20009;-82
2023/05/17 01:30:04;;;;;;;3.72;1.33;;;;;;;2.75;100.00;93313.56;2521340;23;20002;-79
2023/05/17 01:31:08;;;;;;;5.72;1.40;;;;;;;2.76;100.00;93306.41;2544820;23;20005;-80
2023/05/17 01:32:15;;;;;;;5.63;1.60;;;;;;;2.86;100.00;93307.66;2543361;23;20012;-81
2023/05/17 01:33:20;;;;;;;2.45;1.17;;;;;;;2.78;100.00;93312.09;2544912;23;20072;-80
2023/05/17 01:34:33;;;;;;;2.15;1.30;;;;;;;2.78;100.00;93309.44;2521660;23;20117;-79
2023/05/17 01:35:36;;;;;;;2.58;1.30;;;;;;;2.73;100.00;93315.81;2535768;23;20016;-81
2023/05/17 01:36:47;;;;;;;7.10;1.50;;;;;;;2.70;100.00;93311.25;2544803;23;20092;-82
2023/05/17 01:37:54;;;;;;;5.10;1.30;;;;;;;2.70;100.00;93313.13;2522259;23;20011;-79
2023/05/17 01:38:56;;;;;;;2.95;1.05;;;;;;;2.67;100.00;93313.84;2523076;23;20006;-80
2023/05/17 01:40:01;;;;;;;2.70;1.65;;;;;;;2.66;100.00;93312.31;2520449;23;20002;-81
2023/05/17 01:41:30;;;;;;;4.22;1.20;;;;;;;2.57;100.00;93312.59;2522120;23;20010;-82
2023/05/17 01:42:36;;;;;;;4.03;1.70;;;;;;;2.49;100.00;93317.03;2537755;23;20010;-81
2023/05/17 01:44:17;;;;;;;4.30;1.45;;;;;;;2.46;100.00;93330.97;2521422;23;20402;-80
2023/05/17 01:46:05;;;;;;;2.78;1.17;;;;;;;2.51;100.00;93325.38;2510436;23;20002;-80
2023/05/17 01:47:20;;;;;;;3.63;1.30;;;;;;;2.48;100.00;93325.31;2490313;23;20008;-81
2023/05/17 01:48:34;;;;;;;4.50;1.20;;;;;;;2.45;100.00;93326.78;2532780;23;20014;-79
2023/05/17 01:49:41;;;;;;;1.67;0.98;;;;;;;2.41;100.00;93320.69;2525462;23;20026;-80
2023/05/17 01:50:45;;;;;;;2.85;1.00;;;;;;;2.44;100.00;93317.34;2520691;23;20329;-80
2023/05/17 01:51:53;;;;;;;6.70;1.60;;;;;;;2.31;100.00;93321.34;2522357;23;20006;-81
2023/05/17 01:53:07;;;;;;;2.05;1.17;;;;;;;2.37;100.00;93327.84;2521261;23;20006;-81
2023/05/17 01:54:11;;;;;;;3.92;0.90;;;;;;;2.34;100.00;93315.34;2523188;23;20041;-81
2023/05/17 01:55:29;;;;;;;2.67;1.17;;;;;;;2.32;100.00;93327.38;2509585;23;20029;-82
2023/05/17 01:56:36;;;;;;;5.70;2.00;;;;;;;2.23;100.00;93320.47;2515835;23;20458;-79
2023/05/17 01:57:42;;;;;;;4.25;1.17;;;;;;;2.19;100.00;93324.19;2522616;23;20006;-80
2023/05/17 01:58:48;;;;;;;3.25;1.38;;;;;;;2.22;100.00;93316.31;2533755;23;20009;-80
2023/05/17 01:59:53;;;;;;;2.03;1.10;;;;;;;2.23;100.00;93317.09;2533682;23;20333;-80
2023/05/17 02:01:00;;;;;;;6.15;1.45;;;;;;;2.18;100.00;93315.53;2521157;23;20038;-81
2023/05/17 02:02:12;;;;;;;1.83;1.05;;;;;;;2.13;100.00;93313.19;2511184;23;20465;-80
2023/05/17 02:03:20;;;;;;;3.22;1.30;;;;;;;2.13;100.00;93323.75;2512986;23;20479;-80
2023/05/17 02:04:23;;;;;;;3.17;1.45;;;;;;;2.21;100.00;93316.69;2523110;23;20030;-80
2023/05/17 02:05:26;;;;;;;4.10;1.08;;;;;;;2.20;100.00;93325.72;2544742;23;20005;-80
2023/05/17 02:06:31;;;;;;;4.18;1.13;;;;;;;2.20;100.00;93323.09;2545033;23;20020;-80
2023/05/17 02:07:34;;;;;;;3.60;1.60;;;;;;;2.16;100.00;93320.41;2545103;23;20001;-80
2023/05/17 02:08:38;;;;;;;2.63;1.02;;;;;;;2.20;100.00;93318.56;2545173;23;20002;-82
2023/05/17 02:09:43;;;;;;;3.97;1.60;;;;;;;2.23;100.00;93325.00;2532855;23;20012;-81
2023/05/17 02:10:48;;;;;;;6.50;1.83;;;;;;;2.16;100.00;93323.03;2531739;23;20001;-79
2023/05/17 02:11:57;;;;;;;1.88;1.25;;;;;;;2.13;100.00;93326.38;2522185;23;20307;-80
2023/05/17 02:13:10;;;;;;;2.80;1.40;;;;;;;2.16;100.00;93320.41;2533729;23;20020;-82
2023/05/17 02:14:20;;;;;;;5.85;1.35;;;;;;;2.17;100.00;93323.81;2522383;23;20085;-79
2023/05/17 02:15:26;;;;;;;4.00;1.20;;;;;;;2.17;100.00;93329.84;2536677;23;20014;-81
2023/05/17 02:16:36;;;;;;;1.23;1.02;;;;;;;2.15;100.00;93326.03;2543798;23;20447;-82
2023/05/17 02:17:40;;;;;;;;;;;;;;;2.16;100.00;93327.56;2545752;23;20065;-80
2023/05/17 02:18:43;;;;;;;2.85;1.20;;;;;;;2.22;100.00;93324.25;2520591;23;20348;-80
2023/05/17 02:19:52;;;;;;;4.10;1.35;;;;;;;2.24;100.00;93323.91;2509099;23;20006;-80
2023/05/17 02:20:58;;;;;;;3.60;1.40;;;;;;;2.20;100.00;93323.84;2533948;23;20016;-82
2023/05/17 02:22:06;;;;;;;6.22;1.30;;;;;;;2.20;100.00;93326.50;2556679;23;20305;-81
2023/05/17 02:23:14;;;;;;;3.22;1.30;;;;;;;2.23;100.00;93323.13;2532580;23;20006;-80
2023/05/17 02:24:22;;;;;;;4.35;1.30;;;;;;;2.16;100.00;93323.03;2522463;23;20074;-80
2023/05/17 02:25:30;;;;;;;3.63;1.48;;;;;;;2.12;100.00;93324.88;2534317;23;20009;-82
2023/05/17 02:26:34;;;;;;;4.65;1.38;;;;;;;2.05;100.00;93327.41;2521268;23;20010;-81
2023/05/17 02:27:38;;;;;;;3.35;1.40;;;;;;;2.03;100.00;93323.63;2509832;23;20057;-81
2023/05/17 02:28:46;;;;;;;3.72;1.50;;;;;;;2.05;100.00;93321.38;2510105;23;20002;-84
2023/05/17 02:29:54;;;;;;;5.68;1.80;;;;;;;2.08;100.00;93325.94;2510672;23;20011;-80
2023/05/17 02:31:01;;;;;;;3.00;1.23;;;;;;;1.93;100.00;93323.13;2521999;23;20441;-81
2023/05/17 02:32:06;;;;;;;3.92;1.67;;;;;;;1.99;100.00;93326.97;2522422;23;20078;-81
2023/05/17 02:33:13;;;;;;;5.75;1.48;;;;;;;2.00;100.00;93330.34;2533029;23;20009;-82
2023/05/17 02:34:22;;;;;;;1.95;1.40;;;;;;;2.01;100.00;93331.88;2533106;23;20412;-82
2023/05/17 02:35:29;;;;;;;3.47;1.55;;;;;;;2.00;100.00;93335.63;2521462;23;20426;-81
2023/05/17 02:36:35;;;;;;;3.38;1.42;;;;;;;1.92;100.00;93326.84;2523150;23;20010;-83
2023/05/17 02:37:41;;;;;;;2.63;1.92;;;;;;;1.98;100.00;93336.00;2533094;23;20421;-81
2023/05/17 02:38:49;;;;;;;5.93;1.92;;;;;;;2.09;100.00;93335.38;2533788;23;20476;-81
2023/05/17 02:39:57;;;;;;;3.40;1.13;;;;;;;2.17;100.00;93342.25;2521529;23;19998;-80
2023/05/17 02:41:02;;;;;;;4.03;1.35;;;;;;;2.14;100.00;93335.06;2510734;23;20018;-83
2023/05/17 02:42:06;;;;;;;2.78;1.50;;;;;;;2.08;100.00;93337.25;2510026;23;20086;-80
2023/05/17 02:43:09;;;;;;;4.85;1.20;;;;;;;1.95;100.00;93331.41;2520663;23;20393;-81
2023/05/17 02:44:19;;;;;;;2.42;1.00;;;;;;;1.81;100.00;93330.47;2520833;23;20010;-82
2023/05/17 02:45:25;;;;;;;5.82;1.25;;;;;;;1.82;100.00;93330.09;2536034;23;20012;-80
2023/05/17 02:46:35;;;;;;;6.20;1.40;;;;;;;1.87;100.00;93336.94;2532201;23;20005;-81
2023/05/17 02:47:43;;;;;;;3.00;1.55;;;;;;;1.83;100.00;93344.03;2523421;23;20093;-80
2023/05/17 02:48:53;;;;;;;2.88;1.08;;;;;;;1.97;100.00;93331.81;2522225;23;20002;-80
2023/05/17 02:50:02;;;;;;;1.17;0.93;;;;;;;2.00;100.00;93336.38;2511725;23;20451;-82
2023/05/17 02:51:11;;;;;;;1.27;0.98;;;;;;;2.05;100.00;93340.59;2535956;23;20009;-80
2023/05/17 02:52:17;;;;;;;2.08;0.90;;;;;;;2.12;100.00;93340.69;2544742;23;20093;-82
2023/05/17 02:53:23;;;;;;;6.15;1.83;;;;;;;2.07;100.00;93343.63;2532047;23;20010;-82
2023/05/17 02:54:30;;;;;;;2.60;1.10;;;;;;;1.99;100.00;93332.22;2521392;23;20006;-81
2023/05/17 02:55:39;;;;;;;5.55;1.50;;;;;;;1.98;100.00;93338.63;2522592;23;20421;-81
2023/05/17 02:56:48;;;;;;;4.05;1.85;;;;;;;1.86;100.00;93333.56;2522228;23;20014;-81
2023/05/17 02:57:57;;;;;;;2.95;1.27;;;;;;;1.72;100.00;93339.38;2511501;23;20036;-80
2023/05/17 02:59:06;;;;;;;3.40;1.20;;;;;;;1.80;100.00;93342.09;2511802;23;20014;-81
2023/05/17 03:00:17;;;;;;;3.67;1.10;;;;;;;1.72;100.00;93338.63;2523824;23;20010;-81
2023/05/17 03:01:27;;;;;;;2.67;1.17;;;;;;;1.71;100.00;93343.13;2533562;23;20049;-80
2023/05/17 03:02:37;;;;;;;2.85;1.10;;;;;;;1.70;100.00;93338.94;2522279;23;20425;-80
2023/05/17 03:03:48;;;;;;;2.47;1.17;;;;;;;1.64;100.00;93340.38;2524600;23;20006;-80
2023/05/17 03:04:57;;;;;;;3.35;0.90;;;;;;;1.74;100.00;93342.41;2535203;23;20373;-80
2023/05/17 03:06:10;;;;;;;2.75;1.17;;;;;;;1.81;100.00;93344.41;2534909;23;20515;-82
2023/05/17 03:07:19;;;;;;;1.25;0.98;;;;;;;1.84;100.00;93338.41;2522760;23;20456;-80
2023/05/17 03:08:27;;;;;;;4.07;1.25;;;;;;;1.86;100.00;93330.91;2534002;23;20009;-82
2023/05/17 03:09:36;;;;;;;2.58;1.45;;;;;;;1.80;100.00;93342.88;2532962;23;20432;-80
2023/05/17 03:10:39;;;;;;;4.20;1.38;;;;;;;1.59;100.00;93335.41;2511702;23;20007;-80
2023/05/17 03:11:45;;;;;;;2.08;1.20;;;;;;;1.62;100.00;93341.84;2533147;23;20373;-82
2023/05/17 03:12:47;;;;;;;2.03;1.27;;;;;;;1.61;100.00;93342.94;2544766;23;20005;-83
2023/05/17 03:13:50;;;;;;;2.97;1.20;;;;;;;1.48;100.00;93347.63;2532892;23;20036;-83
2023/05/17 03:14:56;;;;;;;4.93;1.48;;;;;;;1.46;100.00;93350.63;2545637;23;20097;-81
2023/05/17 03:16:03;;;;;;;2.55;1.30;;;;;;;1.42;100.00;93344.53;2545545;23;20005;-81
2023/05/17 03:17:07;;;;;;;1.25;1.00;;;;;;;1.46;100.00;93345.38;2545004;23;20487;-81
2023/05/17 03:18:17;;;;;;;3.95;1.48;;;;;;;1.43;100.00;93342.66;2534018;23;20573;-82
2023/05/17 03:19:23;;;;;;;;;;;;;;;1.41;100.00;93348.31;2533316;23;20013;-80
2023/05/17 03:20:31;;;;;;;1.42;1.05;;;;;;;1.43;100.00;93347.94;2533676;23;19948;-82
2023/05/17 03:21:37;;;;;;;3.15;1.40;;;;;;;1.44;100.00;93346.81;2544578;23;20032;-81
2023/05/17 03:22:44;;;;;;;4.32;1.27;;;;;;;1.35;100.00;93348.94;2544876;23;20010;-81
2023/05/17 03:23:51;;;;;;;5.63;1.50;;;;;;;1.40;100.00;93349.38;2522086;23;20011;-81
2023/05/17 03:24:57;;;;;;;3.47;1.02;;;;;;;1.39;100.00;93349.75;2524006;23;20007;-80
2023/05/17 03:26:05;;;;;;;4.18;1.30;;;;;;;1.32;100.00;93347.78;2545162;23;20448;-80
2023/05/17 03:27:15;;;;;;;1.30;1.02;;;;;;;1.34;100.00;93348.16;2545435;23;20055;-81
2023/05/17 03:28:25;;;;;;;2.67;1.30;;;;;;;1.33;100.00;93344.03;2535084;23;20009;-81
2023/05/17 03:29:35;;;;;;;2.70;1.42;;;;;;;1.30;100.00;93339.44;2522861;23;20006;-80
2023/05/17 03:30:46;;;;;;;4.25;1.50;;;;;;;1.30;100.00;93338.69;2523135;23;20002;-83
2023/05/17 03:31:54;;;;;;;2.00;1.15;;;;;;;1.25;100.00;93345.78;2522891;23;20006;-82
2023/05/17 03:33:03;;;;;;;2.70;1.42;;;;;;;1.32;100.00;93347.78;2524304;23;20009;-81
2023/05/17 03:34:09;;;;;;;2.58;1.40;;;;;;;1.32;100.00;93355.69;2522698;23;20093;-81
2023/05/17 03:35:17;;;;;;;3.65;1.50;;;;;;;1.29;100.00;93343.19;2534215;23;20475;-82
2023/05/17 03:36:24;;;;;;;2.08;1.48;;;;;;;1.24;100.00;93348.75;2545801;23;20428;-81
2023/05/17 03:37:31;;;;;;;4.65;1.35;;;;;;;1.31;100.00;93345.47;2533104;23;20009;-81
2023/05/17 03:38:37;;;;;;;3.50;1.25;;;;;;;1.29;100.00;93348.47;2511884;23;20450;-81
2023/05/17 03:39:45;;;;;;;3.33;1.77;;;;;;;1.19;100.00;93351.69;2521662;23;20006;-81
2023/05/17 03:40:55;;;;;;;3.10;1.23;;;;;;;1.26;100.00;93343.91;2512058;23;20014;-80
2023/05/17 03:42:02;;;;;;;8.82;2.58;;;;;;;1.24;100.00;93346.13;2522925;23;19999;-83
2023/05/17 03:43:08;;;;;;;3.35;1.40;;;;;;;1.28;100.00;93348.81;2511873;23;20011;-82
2023/05/17 03:44:15;;;;;;;4.53;1.52;;;;;;;1.34;100.00;93347.41;2523452;23;20010;-82
2023/05/17 03:45:22;;;;;;;4.72;1.27;;;;;;;1.27;100.00;93345.41;2522714;23;20016;-80
2023/05/17 03:46:32;;;;;;;3.20;1.38;;;;;;;1.27;100.00;93353.31;2522701;23;20030;-80
2023/05/17 03:47:41;;;;;;;4.57;1.40;;;;;;;1.21;100.00;93357.34;2513746;23;20007;-81
2023/05/17 03:48:51;;;;;;;3.60;1.30;;;;;;;1.26;100.00;93357.06;2512921;23;20007;-81
2023/05/17 03:49:56;;;;;;;2.73;1.40;;;;;;;1.25;100.00;93352.91;2512065;23;20414;-82
2023/05/17 03:51:01;;;;;;;2.58;1.38;;;;;;;1.34;100.00;93347.41;2533921;23;20397;-81
2023/05/17 03:52:08;;;;;;;5.55;1.88;;;;;;;1.44;100.00;93352.84;2557480;23;20005;-82
2023/05/17 03:53:14;;;;;;;4.55;1.50;;;;;;;1.44;100.00;93346.81;2532893;23;20448;-81
2023/05/17 03:54:21;;;;;;;6.28;1.58;;;;;;;1.42;100.00;93349.81;2511132;23;20374;-81
2023/05/17 03:55:29;;;;;;;4.38;1.63;;;;;;;1.48;100.00;93355.53;2523186;23;20045;-80
2023/05/17 03:56:36;;;;;;;3.13;1.48;;;;;;;1.50;100.00;93355.97;2534794;23;20328;-80
2023/05/17 03:57:42;;;;;;;2.88;1.50;;;;;;;1.50;100.00;93356.72;2522865;23;20006;-81
2023/05/17 03:58:49;;;;;;;5.10;1.50;;;;;;;1.50;100.00;93351.44;2511347;23;20095;-81
2023/05/17 03:59:58;;;;;;;5.55;1.40;;;;;;;1.56;100.00;93356.44;2523651;23;20456;-82
2023/05/17 04:01:06;;;;;;;3.10;1.40;;;;;;;1.56;100.00;93353.78;2544770;23;20028;-80
2023/05/17 04:02:16;;;;;;;2.83;1.30;;;;;;;1.56;100.00;93351.91;2523195;23;20014;-80
2023/05/17 04:03:20;;;;;;;4.22;1.60;;;;;;;1.56;100.00;93353.78;2523847;23;20006;-80
2023/05/17 04:04:23;;;;;;;4.05;1.50;;;;;;;1.59;100.00;93353.09;2534426;23;20496;-81
2023/05/17 04:05:26;;;;;;;3.58;1.55;;;;;;;1.59;100.00;93361.00;2522108;23;20101;-81
2023/05/17 04:06:27;;;;;;;4.90;1.50;;;;;;;1.59;100.00;93359.13;2523344;23;20007;-80
2023/05/17 04:07:32;;;;;;;2.42;1.50;;;;;;;1.62;100.00;93355.00;2535106;23;20009;-81
2023/05/17 04:08:36;;;;;;;4.07;1.60;;;;;;;1.59;100.00;93350.47;2522838;23;20501;-81
2023/05/17 04:09:39;;;;;;;6.43;1.52;;;;;;;1.60;100.00;93362.50;2523586;23;20087;-81
2023/05/17 04:10:45;;;;;;;7.10;1.80;;;;;;;1.59;100.00;93356.50;2523017;23;20010;-81
2023/05/17 04:11:52;;;;;;;7.07;1.80;;;;;;;1.65;100.00;93355.06;2513164;23;20441;-81
2023/05/17 04:13:00;;;;;;;4.80;1.85;;;;;;;1.68;100.00;93364.91;2512496;23;20049;-82
2023/05/17 04:14:07;;;;;;;7.13;1.70;;;;;;;1.75;100.00;93354.47;2525628;23;20426;-80
2023/05/17 04:15:14;;;;;;;5.00;1.80;;;;;;;1.75;100.00;93348.44;2523144;23;20012;-85
2023/05/17 04:16:21;;;;;;;2.97;1.40;;;;;;;1.82;100.00;93358.34;2535527;23;20473;-82
2023/05/17 04:17:29;;;;;;;4.97;1.40;;;;;;;1.86;100.00;93359.91;2535278;23;20010;-82
2023/05/17 04:18:38;;;;;;;4.38;1.80;;;;;;;1.81;100.00;93357.56;2523502;23;20017;-81
2023/05/17 04:19:45;;;;;;;3.40;1.33;;;;;;;1.74;100.00;93355.56;2524921;23;20076;-82
2023/05/17 04:20:51;;;;;;;4.80;1.70;;;;;;;1.75;100.00;93357.09;2534744;23;20031;-82
2023/05/17 04:21:55;;;;;;;3.72;1.55;;;;;;;1.82;100.00;93356.44;2534544;23;20002;-81
2023/05/17 04:23:00;;;;;;;3.08;1.58;;;;;;;1.84;100.00;93366.63;2534438;23;20010;-82
2023/05/17 04:24:07;;;;;;;3.35;1.50;;;;;;;1.81;100.00;93364.72;2546996;23;20005;-80
2023/05/17 04:25:14;;;;;;;4.97;1.80;;;;;;;1.77;100.00;93364.66;2533782;23;20567;-84
2023/05/17 04:26:22;;;;;;;3.13;1.60;;;;;;;1.76;100.00;93363.16;2534634;23;20006;-80
2023/05/17 04:27:28;;;;;;;3.40;2.00;;;;;;;2.09;100.00;93364.38;2522351;23;20089;-81
2023/05/17 04:28:35;;;;;;;4.40;1.75;;;;;;;1.96;100.00;93367.19;2517437;23;20017;-83
2023/05/17 04:29:39;;;;;;;5.18;1.70;;;;;;;1.89;100.00;93369.75;2517448;23;20284;-82
2023/05/17 04:30:47;;;;;;;4.90;1.70;;;;;;;1.83;100.00;93368.50;2507180;23;20089;-83
2023/05/17 04:31:50;;;;;;;3.03;1.38;;;;;;;1.81;100.00;93367.34;2519181;23;20002;-83
2023/05/17 04:32:52;;;;;;;4.68;1.50;;;;;;;1.65;100.00;93370.13;2518368;23;20037;-80
2023/05/17 04:33:55;;;;;;;3.35;1.48;;;;;;;1.74;100.00;93368.00;2527346;23;20010;-81
2023/05/17 04:34:59;;;;;;;3.50;1.40;;;;;;;1.83;100.00;93371.16;2531369;23;20333;-80
2023/05/17 04:36:06;;;;;;;3.67;1.50;;;;;;;1.84;100.00;93367.38;2519185;23;20316;-80
2023/05/17 04:37:11;;;;;;;6.53;1.60;;;;;;;1.96;100.00;93369.84;2508971;23;20034;-81
2023/05/17 04:38:16;;;;;;;5.45;1.77;;;;;;;2.00;100.00;93370.66;2519752;23;20294;-82
2023/05/17 04:39:21;;;;;;;3.13;1.40;;;;;;;1.95;100.00;93380.75;2531603;23;20022;-80
2023/05/17 04:40:27;;;;;;;7.78;1.95;;;;;;;1.93;100.00;93377.69;2530501;23;20376;-82
2023/05/17 04:41:31;;;;;;;3.58;1.55;;;;;;;2.08;100.00;93381.31;2519666;23;20010;-80
2023/05/17 04:42:34;;;;;;;6.93;1.80;;;;;;;2.26;100.00;93377.03;2520338;23;20018;-81
2023/05/17 04:43:35;;;;;;;6.30;1.90;;;;;;;2.21;100.00;93375.47;2543248;23;20064;-81
2023/05/17 04:44:36;;;;;;;5.28;1.70;;;;;;;2.22;100.00;93366.44;2529534;23;20014;-80
2023/05/17 04:45:38;;;;;;;4.68;2.08;;;;;;;2.21;100.00;93375.47;2518075;23;20616;-81
2023/05/17 04:46:39;;;;;;;4.82;1.70;;;;;;;2.11;100.00;93378.72;2506298;23;20065;-80
2023/05/17 04:47:40;;;;;;;5.25;1.85;;;;;;;2.06;100.00;93376.38;2506330;23;20089;-80
2023/05/17 04:48:43;;;;;;;3.40;1.67;;;;;;;2.07;100.00;93371.88;2519590;23;20006;-79
2023/05/17 04:49:44;;;;;;;3.83;1.90;;;;;;;2.13;100.00;93375.72;2519295;23;20006;-80
2023/05/17 04:50:45;;;;;;;2.60;1.55;;;;;;;2.17;100.00;93382.56;2531340;23;20060;-80
2023/05/17 04:51:46;;;;;;;4.38;1.45;;;;;;;2.18;100.00;93381.44;2542576;23;20001;-80
2023/05/17 04:52:47;;;;;;;3.47;1.58;;;;;;;2.16;100.00;93378.41;2530603;23;20009;-82
2023/05/17 04:53:48;;;;;;;4.78;1.70;;;;;;;2.16;100.00;93382.94;2518752;23;20355;-81
2023/05/17 04:54:50;;;;;;;7.53;1.55;;;;;;;2.15;100.00;93384.81;2518594;23;20010;-80
2023/05/17 04:55:51;;;;;;;4.55;1.90;;;;;;;2.18;100.00;93389.34;2507200;23;20438;-82
2023/05/17 04:56:52;;;;;;;4.50;1.73;;;;;;;2.32;100.00;93383.50;2518612;23;20042;-80
2023/05/17 04:57:53;;;;;;;5.63;1.75;;;;;;;2.42;100.00;93384.78;2518509;23;20009;-80
2023/05/17 04:58:54;;;;;;;10.63;4.25;;;;;;;2.37;100.00;93388.50;2506451;23;20010;-80
2023/05/17 04:59:55;;;;;;;6.85;2.80;;;;;;;2.33;100.00;93389.53;2507049;23;20003;-81
2023/05/17 05:00:56;;;;;;;7.70;2.22;;;;;;;2.36;100.00;93394.88;2519142;23;20010;-83
2023/05/17 05:01:57;;;;;;;4.72;1.70;;;;;;;2.42;100.00;93392.72;2531494;23;20473;-82
2023/05/17 05:02:58;;;;;;;5.50;1.67;;;;;;;2.38;100.00;93387.38;2519307;23;20014;-80
2023/05/17 05:04:05;;;;;;;3.13;1.33;;;;;;;2.38;100.00;93394.53;2531256;23;20325;-80
2023/05/17 05:05:08;;;;;;;7.78;2.38;;;;;;;2.45;100.00;93397.25;2553912;23;20035;-79
2023/05/17 05:06:10;;;;;;;5.05;1.90;;;;;;;2.51;100.00;93398.47;2530340;23;20002;-88
2023/05/17 05:07:12;;;;;;;6.57;1.80;;;;;;;2.61;100.00;93399.72;2530860;23;20005;-85
2023/05/17 05:08:13;;;;;;;4.78;1.70;;;;;;;2.61;100.00;93405.75;2519468;23;20021;-79
2023/05/17 05:09:14;;;;;;;4.13;1.63;;;;;;;2.65;100.00;93400.53;2506269;23;20014;-81
2023/05/17 05:10:15;;;;;;;4.72;1.58;;;;;;;2.66;100.00;93405.44;2506382;23;20450;-82
2023/05/17 05:11:16;;;;;;;5.05;2.03;;;;;;;2.74;100.00;93398.38;2530408;23;20088;-81
2023/05/17 05:12:18;;;;;;;5.55;1.70;;;;;;;2.69;100.00;93409.25;2542328;23;20005;-80
2023/05/17 05:13:19;;;;;;;4.93;2.05;;;;;;;2.70;100.00;93410.78;2529628;23;20340;-82
2023/05/17 05:14:20;;;;;;;5.60;2.00;;;;;;;2.72;100.00;93401.41;2522630;23;19987;-81
2023/05/17 05:15:21;;;;;;;5.72;1.80;;;;;;;2.73;100.00;93402.91;2508853;23;20082;-80
2023/05/17 05:16:23;;;;;;;4.88;2.00;;;;;;;2.82;100.00;93407.16;2517502;23;20376;-80